createdAt,value
2019-05-29T00:00:54.767Z,100493.70
2019-05-29T00:03:27.236Z,100494.36
2019-05-29T00:06:00.064Z,100501.81
2019-05-29T00:08:32.153Z,100505.33
2019-05-29T00:11:03.795Z,100507.63
2019-05-29T00:13:35.460Z,100514.98
2019-05-29T00:16:08.304Z,100511.09
2019-05-29T00:18:40.177Z,100521.23
2019-05-29T00:21:13.060Z,100523.16
2019-05-29T00:23:45.254Z,100522.13
2019-05-29T00:26:16.851Z,100526.45
2019-05-29T00:28:49.028Z,100530.38
2019-05-29T00:31:20.997Z,100530.89
2019-05-29T00:33:52.882Z,100537.92
2019-05-29T00:36:24.406Z,100541.97
2019-05-29T00:38:56.651Z,100544.47
2019-05-29T00:41:30.078Z,100544.09
2019-05-29T00:44:02.204Z,100548.14
2019-05-29T00:46:33.501Z,100553.48
2019-05-29T00:49:05.534Z,100553.02
2019-05-29T00:51:37.257Z,100558.28
2019-05-29T00:54:10.322Z,100562.41
2019-05-29T00:56:42.260Z,100568.86
2019-05-29T00:59:15.090Z,100570.02
2019-05-29T01:01:46.310Z,100576.11
2019-05-29T01:04:19.942Z,100569.58
2019-05-29T01:06:52.124Z,100567.66
2019-05-29T01:09:24.294Z,100566.51
2019-05-29T01:11:56.033Z,100578.08
2019-05-29T01:14:29.798Z,100576.92
2019-05-29T01:17:03.131Z,100584.73
2019-05-29T01:19:36.324Z,100579.37
2019-05-29T01:22:08.583Z,100587.58
2019-05-29T01:24:40.797Z,100588.52
2019-05-29T01:27:12.980Z,100583.73
2019-05-29T01:29:47.150Z,100588.05
2019-05-29T01:32:21.991Z,100595.80
2019-05-29T01:34:54.582Z,100595.38
2019-05-29T01:37:26.462Z,100598.30
2019-05-29T01:39:58.513Z,100607.83
2019-05-29T01:42:31.206Z,100609.80
2019-05-29T01:45:08.175Z,100615.45
2019-05-29T01:47:36.904Z,100615.33
2019-05-29T01:50:08.931Z,100621.95
2019-05-29T01:52:40.620Z,100631.05
2019-05-29T01:55:12.817Z,100630.64
2019-05-29T01:57:44.937Z,100634.55
2019-05-29T02:00:21.896Z,100637.92
2019-05-29T02:02:53.780Z,100637.98
2019-05-29T02:05:25.504Z,100640.11
2019-05-29T02:07:57.344Z,100645.72
2019-05-29T02:10:29.062Z,100657.53
2019-05-29T02:13:01.386Z,100655.41
2019-05-29T02:15:34.116Z,100655.88
2019-05-29T02:18:06.081Z,100666.29
2019-05-29T02:20:37.545Z,100669.94
2019-05-29T02:23:09.899Z,100676.00
2019-05-29T02:25:41.952Z,100676.11
2019-05-29T02:28:13.703Z,100679.69
2019-05-29T02:30:46.893Z,100695.61
2019-05-29T02:33:19.629Z,100708.14
2019-05-29T02:35:51.550Z,100713.27
2019-05-29T02:38:24.912Z,100717.42
2019-05-29T02:40:57.620Z,100716.95
2019-05-29T02:43:30.190Z,100727.25
2019-05-29T02:46:02.121Z,100727.83
2019-05-29T02:48:34.302Z,100724.50
2019-05-29T02:51:07.392Z,100725.80
2019-05-29T02:53:38.302Z,100732.92
2019-05-29T02:56:09.928Z,100737.65
2019-05-29T02:58:41.702Z,100737.23
2019-05-29T03:01:13.189Z,100734.56
2019-05-29T03:03:45.251Z,100749.68
2019-05-29T03:06:17.695Z,100748.13
2019-05-29T03:08:50.861Z,100747.33
2019-05-29T03:11:25.258Z,100760.95
2019-05-29T03:13:57.024Z,100763.25
2019-05-29T03:16:30.490Z,100767.22
2019-05-29T03:19:01.938Z,100777.34
2019-05-29T03:21:34.814Z,100775.33
2019-05-29T03:24:06.937Z,100771.36
2019-05-29T03:26:39.486Z,100777.92
2019-05-29T03:29:11.359Z,100780.05
2019-05-29T03:31:47.723Z,100788.08
2019-05-29T03:34:17.217Z,100794.81
2019-05-29T03:36:49.458Z,100799.87
2019-05-29T03:39:22.174Z,100804.73
2019-05-29T03:41:53.464Z,100801.75
2019-05-29T03:44:26.327Z,100798.98
2019-05-29T03:46:59.074Z,100805.41
2019-05-29T03:49:33.243Z,100813.14
2019-05-29T03:52:06.423Z,100813.54
2019-05-29T03:54:38.827Z,100819.89
2019-05-29T03:57:11.016Z,100823.16
2019-05-29T03:59:43.529Z,100824.45
2019-05-29T04:02:15.111Z,100824.36
2019-05-29T04:04:46.805Z,100822.50
2019-05-29T04:07:18.753Z,100837.36
2019-05-29T04:09:50.682Z,100837.14
2019-05-29T04:12:23.617Z,100831.69
2019-05-29T04:14:56.130Z,100841.75
2019-05-29T04:17:29.907Z,100844.03
2019-05-29T04:20:03.022Z,100844.36
2019-05-29T04:22:38.356Z,100846.78
2019-05-29T04:25:10.865Z,100849.06
2019-05-29T04:27:44.088Z,100851.98
2019-05-29T04:30:17.852Z,100859.38
2019-05-29T04:32:50.279Z,100860.52
2019-05-29T04:35:21.863Z,100866.39
2019-05-29T04:37:53.681Z,100867.69
2019-05-29T04:40:25.776Z,100876.96
2019-05-29T04:42:58.280Z,100877.28
2019-05-29T04:45:30.875Z,100887.39
2019-05-29T04:48:03.479Z,100901.70
2019-05-29T04:50:38.077Z,100904.13
2019-05-29T04:53:09.221Z,100904.95
2019-05-29T04:55:40.902Z,100904.70
2019-05-29T04:58:12.397Z,100908.20
2019-05-29T05:00:58.064Z,100904.83
2019-05-29T05:03:17.602Z,100910.05
2019-05-29T05:05:48.969Z,100910.14
2019-05-29T05:08:20.594Z,100919.04
2019-05-29T05:10:52.898Z,100915.77
2019-05-29T05:13:25.113Z,100932.20
2019-05-29T05:16:02.399Z,100933.75
2019-05-29T05:18:35.868Z,100937.57
2019-05-29T05:21:07.519Z,100940.88
2019-05-29T05:23:40.568Z,100944.59
2019-05-29T05:26:13.429Z,100951.42
2019-05-29T05:28:46.581Z,100957.62
2019-05-29T05:31:20.347Z,100968.84
2019-05-29T05:33:51.643Z,100972.11
2019-05-29T05:36:23.868Z,100973.53
2019-05-29T05:38:56.099Z,100980.36
2019-05-29T05:41:28.360Z,100990.59
2019-05-29T05:44:01.350Z,101005.98
2019-05-29T05:46:34.901Z,101004.77
2019-05-29T05:49:06.881Z,101004.61
2019-05-29T05:51:42.818Z,101013.59
2019-05-29T05:54:13.155Z,101018.58
2019-05-29T05:56:45.700Z,101021.55
2019-05-29T05:59:17.484Z,101025.92
2019-05-29T06:01:48.878Z,101020.11
2019-05-29T06:04:21.364Z,101036.61
2019-05-29T06:06:53.286Z,101035.92
2019-05-29T06:09:24.505Z,101043.43
2019-05-29T06:11:58.285Z,101033.49
2019-05-29T06:14:29.685Z,101043.40
2019-05-29T06:17:02.708Z,101043.55
2019-05-29T06:19:36.681Z,101041.70
2019-05-29T06:22:10.269Z,101034.76
2019-05-29T06:24:43.132Z,101037.52
2019-05-29T06:27:21.213Z,101038.83
2019-05-29T06:29:55.661Z,101030.30
2019-05-29T06:32:28.817Z,101032.47
2019-05-29T06:35:04.097Z,101037.48
2019-05-29T06:37:37.494Z,101045.74
2019-05-29T06:40:09.751Z,101047.19
2019-05-29T06:42:41.989Z,101048.73
2019-05-29T06:45:17.533Z,101047.88
2019-05-29T06:47:49.751Z,101049.92
2019-05-29T06:50:22.199Z,101059.30
2019-05-29T06:52:54.440Z,101061.50
2019-05-29T06:55:27.427Z,101063.52
2019-05-29T06:57:59.638Z,101060.16
2019-05-29T07:00:35.611Z,101063.42
2019-05-29T07:03:06.917Z,101071.39
2019-05-29T07:05:39.884Z,101072.80
2019-05-29T07:08:19.023Z,101071.66
2019-05-29T07:10:46.214Z,101078.34
2019-05-29T07:13:18.095Z,101086.88
2019-05-29T07:15:50.101Z,101092.61
2019-05-29T07:18:22.796Z,101089.58
2019-05-29T07:20:54.633Z,101093.08
2019-05-29T07:23:27.373Z,101091.78
2019-05-29T07:25:59.645Z,101091.84
2019-05-29T07:28:31.562Z,101086.28
2019-05-29T07:31:04.077Z,101093.14
2019-05-29T07:33:36.928Z,101101.53
2019-05-29T07:36:09.272Z,101096.73
2019-05-29T07:38:46.074Z,101100.28
2019-05-29T07:41:15.014Z,101093.23
2019-05-29T07:43:46.482Z,101109.13
2019-05-29T07:46:17.913Z,101106.33
2019-05-29T07:51:43.691Z,101110.23
2019-05-29T07:54:15.527Z,101122.00
2019-05-29T07:56:47.012Z,101124.44
2019-05-29T07:59:19.843Z,101127.22
2019-05-29T08:01:52.256Z,101129.52
2019-05-29T08:04:25.508Z,101133.23
2019-05-29T08:06:57.732Z,101133.73
2019-05-29T08:09:29.691Z,101134.05
2019-05-29T08:12:01.937Z,101141.06
2019-05-29T08:14:34.913Z,101142.09
2019-05-29T08:17:14.709Z,101146.00
2019-05-29T08:20:02.916Z,101149.63
2019-05-29T08:22:34.124Z,101155.30
2019-05-29T08:25:03.226Z,101152.64
2019-05-29T08:27:34.976Z,101154.56
2019-05-29T08:30:10.071Z,101163.78
2019-05-29T08:32:45.211Z,101166.70
2019-05-29T08:35:17.540Z,101174.92
2019-05-29T08:37:51.193Z,101169.81
2019-05-29T08:40:23.773Z,101166.45
2019-05-29T08:42:55.460Z,101169.97
2019-05-29T08:45:28.146Z,101170.20
2019-05-29T08:47:59.787Z,101168.39
2019-05-29T08:50:31.860Z,101175.87
2019-05-29T08:53:03.353Z,101182.61
2019-05-29T08:55:35.030Z,101183.69
2019-05-29T08:58:06.489Z,101186.37
2019-05-29T09:00:39.328Z,101189.53
2019-05-29T09:03:11.644Z,101192.60
2019-05-29T09:05:44.545Z,101191.27
2019-05-29T09:08:16.651Z,101191.87
2019-05-29T09:10:49.408Z,101189.11
2019-05-29T09:13:23.045Z,101187.06
2019-05-29T09:15:54.851Z,101191.21
2019-05-29T09:18:27.265Z,101195.16
2019-05-29T09:21:03.401Z,101187.37
2019-05-29T09:23:33.607Z,101199.06
2019-05-29T09:26:15.765Z,101190.15
2019-05-29T09:28:38.673Z,101185.91
2019-05-29T09:31:10.190Z,101194.03
2019-05-29T09:33:41.406Z,101205.19
2019-05-29T09:36:12.487Z,101211.59
2019-05-29T09:38:43.465Z,101211.03
2019-05-29T09:41:15.687Z,101224.81
2019-05-29T09:43:58.284Z,101227.98
2019-05-29T09:46:21.791Z,101229.91
2019-05-29T09:48:52.988Z,101226.02
2019-05-29T09:51:24.036Z,101219.22
2019-05-29T09:53:57.232Z,101214.87
2019-05-29T09:56:28.116Z,101223.36
2019-05-29T09:59:00.417Z,101221.20
2019-05-29T10:01:31.708Z,101220.76
2019-05-29T10:04:05.812Z,101230.22
2019-05-29T10:06:35.377Z,101224.52
2019-05-29T10:09:08.873Z,101223.28
2019-05-29T10:11:39.836Z,101236.64
2019-05-29T10:14:10.808Z,101229.78
2019-05-29T10:16:41.746Z,101230.60
2019-05-29T10:19:12.860Z,101239.59
2019-05-29T10:21:43.884Z,101250.56
2019-05-29T10:24:14.824Z,101242.89
2019-05-29T10:26:45.734Z,101250.30
2019-05-29T10:29:16.637Z,101250.45
2019-05-29T10:31:49.165Z,101246.27
2019-05-29T10:34:20.262Z,101253.61
2019-05-29T10:36:54.581Z,101254.46
2019-05-29T10:39:26.017Z,101272.97
2019-05-29T10:42:04.483Z,101276.30
2019-05-29T10:44:39.534Z,101275.29
2019-05-29T10:47:10.806Z,101274.40
2019-05-29T10:49:42.044Z,101281.81
2019-05-29T10:52:16.555Z,101281.05
2019-05-29T10:54:46.164Z,101277.87
2019-05-29T10:57:17.864Z,101284.05
2019-05-29T10:59:49.196Z,101278.80
2019-05-29T11:02:30.862Z,101291.63
2019-05-29T11:05:07.282Z,101295.89
2019-05-29T11:07:55.946Z,101297.48
2019-05-29T11:10:54.115Z,101299.17
2019-05-29T11:13:42.037Z,101299.41
2019-05-29T11:16:22.963Z,101298.88
2019-05-29T11:18:55.227Z,101307.33
2019-05-29T11:21:26.446Z,101310.89
2019-05-29T11:23:58.384Z,101316.70
2019-05-29T11:26:29.495Z,101317.81
2019-05-29T11:29:01.428Z,101319.48
2019-05-29T11:31:58.992Z,101320.41
2019-05-29T11:35:02.179Z,101311.22
2019-05-29T11:37:44.401Z,101314.38
2019-05-29T11:40:33.018Z,101317.95
2019-05-29T11:43:09.862Z,101324.51
2019-05-29T11:45:40.708Z,101326.45
2019-05-29T11:48:11.588Z,101320.84
2019-05-29T11:50:42.693Z,101326.86
2019-05-29T11:53:15.758Z,101322.49
2019-05-29T11:55:53.894Z,101323.30
2019-05-29T11:58:31.240Z,101312.96
2019-05-29T12:01:10.514Z,101319.88
2019-05-29T12:04:22.025Z,101315.59
2019-05-29T12:06:40.256Z,101320.64
2019-05-29T12:09:32.970Z,101322.16
2019-05-29T12:12:16.770Z,101325.89
2019-05-29T12:15:00.572Z,101332.64
2019-05-29T12:17:23.626Z,101333.53
2019-05-29T12:20:02.403Z,101335.63
2019-05-29T12:22:32.532Z,101339.08
2019-05-29T12:25:04.773Z,101342.63
2019-05-29T12:27:36.052Z,101336.47
2019-05-29T12:30:09.114Z,101335.84
2019-05-29T12:32:42.975Z,101347.16
2019-05-29T12:35:21.409Z,101346.33
2019-05-29T12:38:06.254Z,101344.52
2019-05-29T12:40:41.892Z,101350.90
2019-05-29T12:43:26.817Z,101327.88
2019-05-29T12:45:47.952Z,101340.19
2019-05-29T12:48:18.461Z,101341.78
2019-05-29T12:50:49.627Z,101340.62
2019-05-29T12:53:38.443Z,101350.46
2019-05-29T12:56:27.765Z,101343.13
2019-05-29T12:59:22.109Z,101341.02
2019-05-29T13:15:44.812Z,101359.37
2019-05-29T13:18:28.037Z,101353.64
2019-05-29T13:20:59.383Z,101349.67
2019-05-29T13:23:44.184Z,101350.45
2019-05-29T13:26:05.627Z,101353.05
2019-05-29T13:28:36.864Z,101353.46
2019-05-29T13:31:08.100Z,101348.56
2019-05-29T13:33:40.661Z,101355.33
2019-05-29T13:36:12.623Z,101353.62
2019-05-29T13:38:47.509Z,101351.16
2019-05-29T13:41:18.862Z,101355.78
2019-05-29T13:43:50.679Z,101351.33
2019-05-29T13:46:22.470Z,101348.78
2019-05-29T13:48:56.689Z,101355.11
2019-05-29T13:51:29.298Z,101346.13
2019-05-29T13:54:06.895Z,101353.95
2019-05-29T13:56:34.879Z,101349.30
2019-05-29T13:59:07.105Z,101347.48
2019-05-29T14:01:39.981Z,101344.20
2019-05-29T14:04:11.778Z,101344.89
2019-05-29T14:06:43.929Z,101341.82
2019-05-29T14:09:15.771Z,101344.18
2019-05-29T14:11:47.936Z,101340.89
2019-05-29T14:14:20.903Z,101343.20
2019-05-29T14:16:52.052Z,101338.23
2019-05-29T14:19:24.256Z,101342.45
2019-05-29T14:21:55.108Z,101348.25
2019-05-29T14:24:36.302Z,101351.80
2019-05-29T14:27:07.678Z,101352.34
2019-05-29T14:29:38.200Z,101360.63
2019-05-29T14:32:09.598Z,101357.91
2019-05-29T14:34:41.713Z,101350.95
2019-05-29T14:37:13.535Z,101356.41
2019-05-29T14:39:46.305Z,101363.58
2019-05-29T14:42:17.738Z,101358.95
2019-05-29T14:44:48.839Z,101362.54
2019-05-29T14:47:21.272Z,101357.45
2019-05-29T14:49:52.189Z,101357.73
2019-05-29T14:52:24.036Z,101361.43
2019-05-29T14:54:55.747Z,101358.95
2019-05-29T14:57:29.041Z,101350.67
2019-05-29T15:00:06.820Z,101369.25
2019-05-29T15:02:34.923Z,101371.70
2019-05-29T15:05:07.738Z,101366.19
2019-05-29T15:07:39.865Z,101363.80
2019-05-29T15:10:24.017Z,101370.91
2019-05-29T15:12:44.847Z,101365.19
2019-05-29T15:15:16.942Z,101372.44
2019-05-29T15:17:47.713Z,101379.12
2019-05-29T15:20:20.113Z,101385.34
2019-05-29T15:22:51.355Z,101381.98
2019-05-29T15:25:24.417Z,101385.17
2019-05-29T15:27:54.761Z,101380.00
2019-05-29T15:30:25.979Z,101388.62
2019-05-29T15:32:57.012Z,101390.39
2019-05-29T15:35:29.527Z,101395.33
2019-05-29T15:38:00.468Z,101385.72
2019-05-29T15:40:32.041Z,101385.80
2019-05-29T15:43:03.771Z,101390.09
2019-05-29T15:45:34.635Z,101389.94
2019-05-29T15:48:07.009Z,101392.23
2019-05-29T15:50:38.862Z,101395.55
2019-05-29T15:53:11.103Z,101400.42
2019-05-29T15:55:42.587Z,101406.77
2019-05-29T15:58:13.631Z,101404.80
2019-05-29T16:00:44.342Z,101399.96
2019-05-29T16:03:15.604Z,101403.24
2019-05-29T16:05:47.426Z,101404.63
2019-05-29T16:08:21.028Z,101400.63
2019-05-29T16:10:52.703Z,101405.27
2019-05-29T16:13:24.543Z,101398.42
2019-05-29T16:15:56.857Z,101397.74
2019-05-29T16:18:29.726Z,101400.78
2019-05-29T16:21:01.129Z,101405.86
2019-05-29T16:23:35.784Z,101404.66
2019-05-29T16:26:04.297Z,101403.54
2019-05-29T16:28:35.151Z,101404.31
2019-05-29T16:31:06.716Z,101402.75
2019-05-29T16:33:38.670Z,101402.63
2019-05-29T16:36:12.379Z,101415.25
2019-05-29T16:38:45.005Z,101409.09
2019-05-29T16:41:18.029Z,101411.95
2019-05-29T16:43:49.552Z,101422.31
2019-05-29T16:46:24.066Z,101429.84
2019-05-29T16:48:54.781Z,101423.48
2019-05-29T16:51:26.978Z,101429.31
2019-05-29T16:53:59.020Z,101435.94
2019-05-29T16:56:31.898Z,101437.14
2019-05-29T16:59:04.035Z,101441.30
2019-05-29T17:01:37.468Z,101438.28
2019-05-29T17:04:09.680Z,101445.58
2019-05-29T17:06:41.704Z,101441.88
2019-05-29T17:09:14.539Z,101437.92
2019-05-29T17:11:45.914Z,101439.14
2019-05-29T17:14:18.617Z,101446.32
2019-05-29T17:16:51.680Z,101447.95
2019-05-29T17:19:23.189Z,101444.76
2019-05-29T17:21:54.267Z,101457.98
2019-05-29T17:24:25.410Z,101459.12
2019-05-29T17:26:56.397Z,101462.48
2019-05-29T17:29:27.573Z,101464.97
2019-05-29T17:32:53.073Z,101472.51
2019-05-29T17:35:37.273Z,101466.32
2019-05-29T17:38:09.535Z,101477.74
2019-05-29T17:41:09.558Z,101479.19
2019-05-29T17:43:43.410Z,101481.70
2019-05-29T17:46:15.372Z,101491.55
2019-05-29T17:48:46.506Z,101488.97
2019-05-29T17:51:17.708Z,101496.73
2019-05-29T17:53:50.097Z,101500.94
2019-05-29T17:56:29.684Z,101492.20
2019-05-29T17:58:53.388Z,101496.82
2019-05-29T18:01:24.317Z,101495.04
2019-05-29T18:03:55.570Z,101492.47
2019-05-29T18:06:26.894Z,101490.14
2019-05-29T18:09:19.034Z,101502.11
2019-05-29T18:12:08.830Z,101500.12
2019-05-29T18:15:21.641Z,101506.20
2019-05-29T18:18:06.970Z,101517.80
2019-05-29T18:24:17.747Z,101530.12
2019-05-29T18:27:03.692Z,101539.22
2019-05-29T18:29:52.194Z,101542.27
2019-05-29T18:32:33.781Z,101545.98
2019-05-29T18:35:37.855Z,101554.92
2019-05-29T18:39:03.285Z,101554.52
2019-05-29T18:42:33.935Z,101571.14
2019-05-29T18:45:21.037Z,101568.77
2019-05-29T18:47:45.987Z,101571.64
2019-05-29T18:50:17.395Z,101585.50
2019-05-29T18:52:48.316Z,101591.61
2019-05-29T18:55:20.754Z,101589.82
2019-05-29T18:57:51.854Z,101594.30
2019-05-29T19:00:23.400Z,101601.64
2019-05-29T19:02:54.609Z,101601.68
2019-05-29T19:05:25.687Z,101606.97
2019-05-29T19:08:15.291Z,101610.31
2019-05-29T19:11:15.490Z,101616.70
2019-05-29T19:13:53.377Z,101621.30
2019-05-29T19:16:51.108Z,101625.34
2019-05-29T19:19:36.616Z,101632.56
2019-05-29T19:22:13.097Z,101633.89
2019-05-29T19:24:56.837Z,101636.77
2019-05-29T19:27:42.565Z,101649.93
2019-05-29T19:30:16.490Z,101647.56
2019-05-29T19:32:53.218Z,101649.91
2019-05-29T19:35:27.698Z,101655.39
2019-05-29T19:38:18.128Z,101657.36
2019-05-29T19:41:10.157Z,101661.77
2019-05-29T19:44:08.131Z,101665.13
2019-05-29T19:47:03.951Z,101676.34
2019-05-29T19:50:21.812Z,101671.08
2019-05-29T19:53:06.999Z,101684.00
2019-05-29T19:55:44.089Z,101688.23
2019-05-29T19:58:17.347Z,101684.61
2019-05-29T20:00:48.995Z,101693.56
2019-05-29T20:03:32.213Z,101695.00
2019-05-29T20:06:19.831Z,101704.78
2019-05-29T20:09:00.811Z,101706.91
2019-05-29T20:11:50.057Z,101706.33
2019-05-29T20:14:40.091Z,101714.57
2019-05-29T20:17:15.268Z,101715.22
2019-05-29T20:19:51.251Z,101718.00
2019-05-29T20:22:23.276Z,101719.86
2019-05-29T20:24:57.449Z,101721.70
2019-05-29T20:27:30.734Z,101726.84
2019-05-29T20:30:03.840Z,101730.88
2019-05-29T20:32:37.089Z,101730.39
2019-05-29T20:35:28.137Z,101740.16
2019-05-29T20:38:31.533Z,101744.20
2019-05-29T20:41:16.023Z,101739.38
2019-05-29T20:43:51.673Z,101744.83
2019-05-29T20:46:24.840Z,101747.66
2019-05-29T20:49:00.249Z,101754.63
2019-05-29T20:51:40.495Z,101759.66
2019-05-29T20:54:12.976Z,101755.55
2019-05-29T20:56:44.610Z,101759.58
2019-05-29T20:59:16.865Z,101767.19
2019-05-29T21:01:48.514Z,101766.13
2019-05-29T21:04:20.702Z,101765.94
2019-05-29T21:06:53.194Z,101770.88
2019-05-29T21:09:25.173Z,101768.98
2019-05-29T21:11:56.354Z,101769.58
2019-05-29T21:14:29.126Z,101775.14
2019-05-29T21:17:00.890Z,101776.33
2019-05-29T21:19:33.910Z,101779.08
2019-05-29T21:22:06.585Z,101773.75
2019-05-29T21:24:38.820Z,101772.95
2019-05-29T21:27:11.200Z,101782.29
2019-05-29T21:29:43.395Z,101782.42
2019-05-29T21:32:17.038Z,101791.55
2019-05-29T21:34:48.796Z,101795.67
2019-05-29T21:37:20.618Z,101789.25
2019-05-29T21:39:52.465Z,101788.16
2019-05-29T21:42:25.927Z,101795.09
2019-05-29T21:44:58.407Z,101797.49
2019-05-29T21:47:29.036Z,101801.89
2019-05-29T21:50:00.999Z,101800.09
2019-05-29T21:52:33.825Z,101807.83
2019-05-29T21:55:06.789Z,101801.31
2019-05-29T21:57:42.307Z,101811.73
2019-05-29T22:00:15.495Z,101818.12
2019-05-29T22:02:49.992Z,101811.73
2019-05-29T22:05:21.682Z,101810.23
2019-05-29T22:07:53.850Z,101817.52
2019-05-29T22:10:26.372Z,101817.88
2019-05-29T22:13:00.677Z,101823.30
2019-05-29T22:15:32.549Z,101822.19
2019-05-29T22:18:04.610Z,101833.50
2019-05-29T22:20:37.182Z,101829.91
2019-05-29T22:23:09.064Z,101838.42
2019-05-29T22:25:41.252Z,101832.19
2019-05-29T22:28:12.560Z,101834.09
2019-05-29T22:30:45.112Z,101833.20
2019-05-29T22:33:17.442Z,101841.70
2019-05-29T22:35:52.681Z,101841.38
2019-05-29T22:38:24.390Z,101839.75
2019-05-29T22:40:57.685Z,101840.34
2019-05-29T22:43:30.897Z,101851.01
2019-05-29T22:46:02.620Z,101860.03
2019-05-29T22:48:34.444Z,101867.29
2019-05-29T22:51:06.820Z,101864.97
2019-05-29T22:53:38.746Z,101860.63
2019-05-29T22:56:13.508Z,101863.10
2019-05-29T22:58:45.460Z,101863.03
2019-05-29T23:01:17.625Z,101872.73
2019-05-29T23:03:49.604Z,101871.78
2019-05-29T23:06:22.099Z,101879.49
2019-05-29T23:08:54.210Z,101876.94
2019-05-29T23:11:25.806Z,101870.34
2019-05-29T23:13:58.385Z,101879.12
2019-05-29T23:16:29.860Z,101878.77
2019-05-29T23:19:02.792Z,101884.27
2019-05-29T23:21:35.884Z,101887.30
2019-05-29T23:24:08.826Z,101895.08
2019-05-29T23:26:40.722Z,101893.72
2019-05-29T23:29:12.650Z,101898.98
2019-05-29T23:31:43.956Z,101900.54
2019-05-29T23:34:15.444Z,101904.86
2019-05-29T23:36:47.617Z,101904.36
2019-05-29T23:39:18.819Z,101900.73
2019-05-29T23:41:50.008Z,101906.08
2019-05-29T23:44:21.926Z,101903.91
2019-05-29T23:46:55.376Z,101902.11
2019-05-29T23:49:27.838Z,101907.12
2019-05-29T23:51:59.801Z,101894.34
2019-05-29T23:54:32.106Z,101887.17
2019-05-29T23:57:04.218Z,101895.47
2019-05-29T23:59:35.988Z,101894.71
